Terminal Aerodrome Forecast
Issued by NWS

Home | Current Version | Previous Version | Text Only | Print | Product List | Glossary On
Versions: 1 2 3 4 5 6 7 8 9 10 11 12 13 14 15
000
FTUS46 KSGX 230600 AAA
TAFONT
TAF AMD
KONT 230640Z 2307/2412 VRB03KT P6SM FEW030 BKN150
      TEMPO 2309/2312 BKN012
     FM231300 03005KT P6SM SCT200 WS015/03030KT
     FM231600 04020G30KT P6SM SCT200
     FM232100 04010G20KT P6SM SCT200
     FM240300 05005KT P6SM SCT200=

USA.gov is the U.S. government's official web portal to all federal, state and local government web resources and services.